Terminal Aerodrome Forecast
Issued by NWS Paducah, KY

Home | Current Version | Previous Version | Text Only | Print | Product List | Glossary On
Versions: 1 2 3 4 5 6 7 8 9 10 11 12 13 14 15 16 17 18 19 20 21 22 23 24 25 26 27 28 29 30 31 32
630
FTUS43 KPAH 271729
TAFPAH
TAF
KPAH 271729Z 2718/2818 13003KT P6SM VCTS SCT020 SCT035CB
     FM280000 17004KT P6SM SCT050 BKN100
     FM280700 VRB03KT 4SM BR VCTS SCT020 OVC050CB
      TEMPO 2809/2813 1SM TSRA BR OVC012CB
     FM281600 27003KT P6SM SCT040 BKN100=

USA.gov is the U.S. government's official web portal to all federal, state and local government web resources and services.